createdAt,value
2023-01-10T00:02:49.415Z,5.80
2023-01-10T00:07:51.272Z,5.80
2023-01-10T00:13:11.921Z,5.80
2023-01-10T00:18:13.793Z,5.80
2023-01-10T00:23:16.307Z,5.80
2023-01-10T00:28:20.801Z,5.90
2023-01-10T00:33:22.800Z,5.90
2023-01-10T00:38:24.920Z,6.00
2023-01-10T00:43:45.166Z,6.00
2023-01-10T00:48:46.960Z,5.90
2023-01-10T00:53:49.000Z,5.90
2023-01-10T00:58:50.757Z,5.90
2023-01-10T01:03:52.531Z,5.70
2023-01-10T01:08:54.534Z,5.80
2023-01-10T01:13:56.377Z,5.80
2023-01-10T01:18:58.708Z,5.80
2023-01-10T01:24:00.599Z,5.80
2023-01-10T01:29:02.388Z,5.80
2023-01-10T01:34:04.198Z,5.90
2023-01-10T01:39:06.280Z,6.00
2023-01-10T01:44:15.434Z,6.00
2023-01-10T01:49:21.772Z,6.00
2023-01-10T01:54:23.884Z,6.00
2023-01-10T01:59:33.216Z,6.00
2023-01-10T02:04:45.184Z,6.10
2023-01-10T02:09:53.329Z,5.90
2023-01-10T02:14:55.990Z,5.80
2023-01-10T02:20:10.467Z,5.80
2023-01-10T02:25:46.452Z,5.80
2023-01-10T02:31:14.124Z,5.80
2023-01-10T02:36:38.380Z,5.80
2023-01-10T02:41:51.329Z,5.90
2023-01-10T02:46:53.197Z,5.80
2023-01-10T02:51:55.757Z,5.80
2023-01-10T02:57:09.831Z,5.70
2023-01-10T03:02:24.876Z,5.70
2023-01-10T03:08:03.119Z,5.70
2023-01-10T03:13:18.777Z,5.60
2023-01-10T03:19:04.294Z,5.60
2023-01-10T03:24:10.902Z,5.60
2023-01-10T03:29:18.510Z,5.60
2023-01-10T03:34:22.167Z,5.50
2023-01-10T03:39:35.704Z,5.50
2023-01-10T03:44:45.910Z,5.50
2023-01-10T03:49:53.688Z,5.50
2023-01-10T03:54:55.623Z,5.50
2023-01-10T03:59:59.039Z,5.50
2023-01-10T04:05:00.883Z,5.50
2023-01-10T04:10:04.503Z,5.40
2023-01-10T04:15:06.854Z,5.30
2023-01-10T04:20:10.739Z,5.30
2023-01-10T04:25:12.786Z,5.20
2023-01-10T04:30:14.712Z,5.00
2023-01-10T04:35:16.597Z,5.00
2023-01-10T04:40:19.777Z,4.90
2023-01-10T04:45:22.150Z,4.90
2023-01-10T04:50:24.261Z,4.90
2023-01-10T04:55:26.118Z,4.90
2023-01-10T05:00:28.312Z,4.70
2023-01-10T05:05:31.272Z,4.80
2023-01-10T05:10:33.088Z,4.70
2023-01-10T05:15:34.892Z,4.70
2023-01-10T05:20:36.956Z,4.70
2023-01-10T05:25:38.758Z,4.70
2023-01-10T05:30:40.514Z,4.70
2023-01-10T05:35:42.249Z,4.60
2023-01-10T05:40:44.264Z,4.70
2023-01-10T05:45:46.193Z,4.60
2023-01-10T05:50:50.812Z,4.60
2023-01-10T05:56:01.296Z,4.60
2023-01-10T06:01:03.329Z,4.50
2023-01-10T06:06:05.507Z,4.50
2023-01-10T06:11:07.848Z,4.50
2023-01-10T06:16:09.865Z,4.50
2023-01-10T06:21:11.665Z,4.50
2023-01-10T06:26:13.515Z,4.40
2023-01-10T06:31:15.551Z,4.40
2023-01-10T06:36:17.796Z,4.40
2023-01-10T06:41:19.590Z,4.40
2023-01-10T06:46:21.410Z,4.30
2023-01-10T06:51:23.224Z,4.30
2023-01-10T06:56:25.083Z,4.30
2023-01-10T07:01:28.155Z,4.30
2023-01-10T07:06:30.041Z,4.30
2023-01-10T07:11:32.319Z,4.30
2023-01-10T07:16:34.118Z,4.30
2023-01-10T07:21:35.925Z,4.30
2023-01-10T07:26:37.758Z,4.30
2023-01-10T07:31:39.561Z,4.30
2023-01-10T07:36:41.609Z,4.30
2023-01-10T07:41:43.416Z,4.30
2023-01-10T07:46:45.224Z,4.50
2023-01-10T07:51:47.028Z,4.40
2023-01-10T07:56:50.229Z,4.40
2023-01-10T08:01:52.024Z,4.40
2023-01-10T08:06:55.139Z,4.50
2023-01-10T08:11:56.980Z,4.50
2023-01-10T08:16:58.803Z,4.60
2023-01-10T08:22:00.685Z,4.60
2023-01-10T08:27:02.982Z,4.70
2023-01-10T08:32:04.901Z,4.70
2023-01-10T08:37:06.698Z,4.90
2023-01-10T08:42:08.488Z,4.90
2023-01-10T08:47:10.337Z,5.00
2023-01-10T08:52:12.293Z,5.00
2023-01-10T08:57:14.192Z,5.10
2023-01-10T09:02:16.037Z,5.10
2023-01-10T09:07:18.132Z,5.20
2023-01-10T09:12:38.276Z,5.20
2023-01-10T09:17:40.353Z,5.30
2023-01-10T09:22:42.151Z,5.40
2023-01-10T09:27:43.920Z,5.40
2023-01-10T09:32:51.132Z,5.50
2023-01-10T09:38:03.459Z,5.50
2023-01-10T09:43:30.382Z,5.60
2023-01-10T09:48:38.064Z,5.70
2023-01-10T09:53:43.829Z,5.70
2023-01-10T09:58:46.319Z,5.80
2023-01-10T10:03:54.164Z,5.90
2023-01-10T10:08:57.805Z,5.90
2023-01-10T10:13:59.582Z,6.10
2023-01-10T10:19:07.284Z,6.20
2023-01-10T10:24:27.120Z,6.20
2023-01-10T10:30:03.017Z,6.30
2023-01-10T10:35:23.925Z,6.40
2023-01-10T10:40:32.329Z,6.50
2023-01-10T10:45:42.101Z,6.50
2023-01-10T10:50:59.876Z,6.60
2023-01-10T10:56:07.266Z,6.70
2023-01-10T11:01:16.393Z,6.80
2023-01-10T11:06:20.302Z,6.80
2023-01-10T11:11:29.128Z,6.90
2023-01-10T11:16:36.662Z,6.90
2023-01-10T11:21:41.180Z,6.80
2023-01-10T11:26:43.011Z,6.90
2023-01-10T11:31:46.118Z,6.80
2023-01-10T11:37:04.522Z,6.90
2023-01-10T11:42:24.798Z,6.90
2023-01-10T11:47:29.961Z,7.00
2023-01-10T11:52:31.820Z,7.00
2023-01-10T11:57:33.792Z,7.10
2023-01-10T12:02:40.022Z,7.10
2023-01-10T12:08:06.627Z,7.20
2023-01-10T12:13:15.818Z,7.30
2023-01-10T12:18:19.641Z,7.40
2023-01-10T12:23:25.187Z,7.40
2023-01-10T12:28:30.183Z,7.40
2023-01-10T12:33:36.708Z,7.50
2023-01-10T12:39:06.579Z,7.50
2023-01-10T12:44:26.647Z,7.50
2023-01-10T12:49:35.229Z,7.50
2023-01-10T12:54:37.282Z,7.50
2023-01-10T12:59:42.786Z,7.40
2023-01-10T13:04:50.444Z,7.50
2023-01-10T13:09:52.718Z,7.40
2023-01-10T13:14:58.220Z,7.30
2023-01-10T13:20:18.818Z,7.20
2023-01-10T13:26:15.770Z,7.20
2023-01-10T13:31:34.517Z,7.10
2023-01-10T13:36:42.478Z,7.00
2023-01-10T13:42:18.203Z,7.00
2023-01-10T13:47:45.593Z,6.90
2023-01-10T13:52:47.391Z,6.90
2023-01-10T13:58:12.067Z,6.80
2023-01-10T14:03:37.359Z,6.80
2023-01-10T14:08:40.644Z,6.80
2023-01-10T14:13:55.366Z,6.80
2023-01-10T14:18:57.714Z,6.70
2023-01-10T14:23:59.888Z,6.70
2023-01-10T14:29:13.796Z,6.70
2023-01-10T14:34:37.149Z,6.60
2023-01-10T14:39:42.160Z,6.60
2023-01-10T14:44:50.894Z,6.60
2023-01-10T14:49:52.685Z,6.60
2023-01-10T14:55:16.783Z,6.50
2023-01-10T15:00:20.474Z,6.60
2023-01-10T15:05:26.119Z,6.60
2023-01-10T15:10:35.330Z,6.60
2023-01-10T15:15:39.575Z,6.60
2023-01-10T15:20:41.705Z,6.50
2023-01-10T15:25:44.610Z,6.60
2023-01-10T15:30:47.041Z,6.60
2023-01-10T15:35:48.825Z,6.60
2023-01-10T15:41:02.504Z,6.60
2023-01-10T15:46:06.254Z,6.60
2023-01-10T15:51:29.470Z,6.60
2023-01-10T15:56:47.259Z,6.70
2023-01-10T16:02:16.760Z,6.70
2023-01-10T16:07:24.615Z,6.70
2023-01-10T16:12:53.877Z,6.70
2023-01-10T16:17:56.419Z,6.80
2023-01-10T16:22:59.083Z,6.80
2023-01-10T16:28:01.040Z,6.90
2023-01-10T16:33:11.050Z,6.90
2023-01-10T16:38:13.654Z,6.90
2023-01-10T16:43:18.392Z,7.00
2023-01-10T16:48:21.493Z,7.00
2023-01-10T16:53:23.244Z,7.10
2023-01-10T16:58:24.996Z,7.10
2023-01-10T17:03:26.891Z,7.10
2023-01-10T17:08:28.725Z,7.20
2023-01-10T17:13:34.334Z,7.30
2023-01-10T17:18:38.648Z,7.40
2023-01-10T17:23:41.952Z,7.30
2023-01-10T17:28:49.574Z,7.50
2023-01-10T17:33:51.546Z,7.50
2023-01-10T17:38:53.308Z,7.50
2023-01-10T17:43:55.077Z,7.60
2023-01-10T17:48:56.841Z,7.70
2023-01-10T17:53:58.967Z,7.80
2023-01-10T17:59:00.742Z,7.70
2023-01-10T18:04:02.610Z,7.80
2023-01-10T18:09:04.717Z,7.80
2023-01-10T18:14:26.377Z,7.80
2023-01-10T18:19:29.862Z,7.90
2023-01-10T18:24:31.663Z,7.90
2023-01-10T18:29:33.531Z,8.00
2023-01-10T18:34:35.316Z,8.00
2023-01-10T18:39:37.320Z,7.90
2023-01-10T18:44:39.986Z,8.00
2023-01-10T18:49:41.887Z,8.00
2023-01-10T18:54:43.801Z,8.10
2023-01-10T18:59:45.742Z,8.20
2023-01-10T19:04:51.603Z,8.20
2023-01-10T19:09:53.473Z,8.30
2023-01-10T19:14:55.297Z,8.30
2023-01-10T19:19:57.051Z,8.40
2023-01-10T19:24:58.856Z,8.50
2023-01-10T19:30:01.896Z,8.50
2023-01-10T19:35:04.444Z,8.60
2023-01-10T19:40:07.727Z,8.70
2023-01-10T19:45:09.966Z,8.80
2023-01-10T19:50:11.866Z,8.90
2023-01-10T19:55:14.347Z,8.90
2023-01-10T20:00:16.781Z,8.90
2023-01-10T20:05:18.744Z,9.00
2023-01-10T20:10:20.867Z,9.00
2023-01-10T20:15:22.825Z,9.00
2023-01-10T20:20:24.619Z,9.10
2023-01-10T20:25:26.462Z,9.00
2023-01-10T20:30:28.445Z,9.10
2023-01-10T20:35:30.338Z,9.10
2023-01-10T20:40:32.163Z,9.20
2023-01-10T20:45:34.688Z,9.20
2023-01-10T20:50:36.655Z,9.20
2023-01-10T20:55:38.603Z,9.20
2023-01-10T21:00:40.453Z,9.20
2023-01-10T21:05:48.118Z,9.30
2023-01-10T21:10:51.675Z,9.30
2023-01-10T21:15:55.582Z,9.40
2023-01-10T21:20:58.032Z,9.50
2023-01-10T21:26:05.956Z,9.50
2023-01-10T21:31:09.200Z,9.60
2023-01-10T21:36:12.759Z,9.60
2023-01-10T21:41:35.732Z,9.80
2023-01-10T21:46:37.662Z,10.00
2023-01-10T21:51:39.553Z,10.10
2023-01-10T21:56:41.463Z,10.20
2023-01-10T22:01:43.375Z,10.30
2023-01-10T22:06:45.155Z,10.20
2023-01-10T22:11:46.952Z,10.20
2023-01-10T22:16:48.789Z,10.20
2023-01-10T22:21:50.544Z,10.20
2023-01-10T22:26:54.786Z,10.30
2023-01-10T22:31:56.628Z,10.30
2023-01-10T22:36:58.526Z,10.30
2023-01-10T22:42:00.317Z,10.50
2023-01-10T22:47:02.123Z,10.50
2023-01-10T22:52:05.115Z,10.50
2023-01-10T22:57:06.894Z,10.60
2023-01-10T23:02:08.731Z,10.50
2023-01-10T23:07:10.948Z,10.60
2023-01-10T23:12:12.777Z,10.60
2023-01-10T23:17:14.647Z,10.60
2023-01-10T23:22:16.455Z,10.60
2023-01-10T23:27:18.237Z,10.70
2023-01-10T23:32:20.277Z,10.70
2023-01-10T23:37:22.072Z,10.80
2023-01-10T23:42:23.849Z,10.80
2023-01-10T23:47:25.627Z,10.80
2023-01-10T23:52:27.524Z,11.00
2023-01-10T23:57:29.362Z,10.90
